createdAt,value
2023-04-01T00:00:53.187Z,5.68
2023-04-01T00:03:22.484Z,7.53
2023-04-01T00:05:53.479Z,5.70
2023-04-01T00:08:21.604Z,5.82
2023-04-01T00:10:49.136Z,7.25
2023-04-01T00:13:16.995Z,6.35
2023-04-01T00:15:45.522Z,6.45
2023-04-01T00:18:13.656Z,8.87
2023-04-01T00:20:46.125Z,5.75
2023-04-01T00:23:15.530Z,4.87
2023-04-01T00:25:43.455Z,5.28
2023-04-01T00:28:11.013Z,7.32
2023-04-01T00:30:39.164Z,4.53
2023-04-01T00:33:06.699Z,6.65
2023-04-01T00:35:34.355Z,4.45
2023-04-01T00:38:04.109Z,6.15
2023-04-01T00:40:31.493Z,5.62
2023-04-01T00:42:59.158Z,7.93
2023-04-01T00:45:39.303Z,5.70
2023-04-01T00:48:13.951Z,5.40
2023-04-01T00:50:46.124Z,4.40
2023-04-01T00:53:13.729Z,10.57
2023-04-01T00:55:45.344Z,5.00
2023-04-01T00:58:16.385Z,4.97
2023-04-01T01:00:44.241Z,6.15
2023-04-01T01:03:13.766Z,6.18
2023-04-01T01:06:05.419Z,5.40
2023-04-01T01:08:45.413Z,6.90
2023-04-01T01:11:15.510Z,5.78
2023-04-01T01:14:21.622Z,6.18
2023-04-01T01:17:01.545Z,4.93
2023-04-01T01:19:55.427Z,4.20
2023-04-01T01:22:46.993Z,5.10
2023-04-01T01:25:35.307Z,5.60
2023-04-01T01:28:22.223Z,7.53
2023-04-01T01:31:00.504Z,4.78
2023-04-01T01:33:57.900Z,5.00
2023-04-01T01:36:30.241Z,5.13
2023-04-01T01:38:59.001Z,4.60
2023-04-01T01:41:27.712Z,4.47
2023-04-01T01:43:57.677Z,4.57
2023-04-01T01:46:27.452Z,4.18
2023-04-01T01:48:56.298Z,4.13
2023-04-01T01:51:24.118Z,4.80
2023-04-01T01:53:52.513Z,4.90
2023-04-01T01:56:23.702Z,5.18
2023-04-01T01:58:58.217Z,5.12
2023-04-01T02:01:28.579Z,6.60
2023-04-01T02:03:57.812Z,7.60
2023-04-01T02:06:29.401Z,4.80
2023-04-01T02:09:03.976Z,7.12
2023-04-01T02:11:35.492Z,3.72
2023-04-01T02:14:11.275Z,4.90
2023-04-01T02:16:46.475Z,4.55
2023-04-01T02:19:15.514Z,4.32
2023-04-01T02:21:43.703Z,3.15
2023-04-01T02:24:14.169Z,3.85
2023-04-01T02:26:42.350Z,2.93
2023-04-01T02:29:10.632Z,4.47
2023-04-01T02:31:38.480Z,3.85
2023-04-01T02:34:06.429Z,4.95
2023-04-01T02:36:36.115Z,3.45
2023-04-01T02:39:05.312Z,5.60
2023-04-01T02:41:40.046Z,3.12
2023-04-01T02:44:08.258Z,4.20
2023-04-01T02:46:36.271Z,2.90
2023-04-01T02:49:04.222Z,3.60
2023-04-01T02:51:33.087Z,5.40
2023-04-01T02:54:01.227Z,3.47
2023-04-01T02:56:29.497Z,3.87
2023-04-01T02:58:57.431Z,2.55
2023-04-01T03:01:25.695Z,3.05
2023-04-01T03:03:53.833Z,2.63
2023-04-01T03:06:21.309Z,4.57
2023-04-01T03:08:49.196Z,2.53
2023-04-01T03:11:17.269Z,3.58
2023-04-01T03:13:44.932Z,2.60
2023-04-01T03:16:13.148Z,2.63
2023-04-01T03:18:40.923Z,3.10
2023-04-01T03:21:20.360Z,3.50
2023-04-01T03:23:48.606Z,2.70
2023-04-01T03:26:16.561Z,2.85
2023-04-01T03:28:44.366Z,2.73
2023-04-01T03:31:12.320Z,2.62
2023-04-01T03:33:40.901Z,2.22
2023-04-01T03:36:08.852Z,3.45
2023-04-01T03:38:36.913Z,4.53
2023-04-01T03:41:04.593Z,3.93
2023-04-01T03:43:33.680Z,4.12
2023-04-01T03:46:01.647Z,3.20
2023-04-01T03:48:29.398Z,3.83
2023-04-01T03:50:57.184Z,3.30
2023-04-01T03:53:25.768Z,4.17
2023-04-01T03:55:56.695Z,2.00
2023-04-01T03:58:24.324Z,3.33
2023-04-01T04:00:52.567Z,2.62
2023-04-01T04:03:21.201Z,2.45
2023-04-01T04:05:49.255Z,2.10
2023-04-01T04:08:17.119Z,2.70
2023-04-01T04:10:47.382Z,2.62
2023-04-01T04:13:15.003Z,3.95
2023-04-01T04:15:44.251Z,3.53
2023-04-01T04:18:12.040Z,2.20
2023-04-01T04:20:52.126Z,2.25
2023-04-01T04:23:20.328Z,3.30
2023-04-01T04:25:58.344Z,2.08
2023-04-01T04:28:27.966Z,3.03
2023-04-01T04:30:57.404Z,2.90
2023-04-01T04:33:25.752Z,2.15
2023-04-01T04:35:56.710Z,2.78
2023-04-01T04:38:25.149Z,5.15
2023-04-01T04:40:53.099Z,2.62
2023-04-01T04:43:21.113Z,2.87
2023-04-01T04:45:49.066Z,2.90
2023-04-01T04:48:19.940Z,4.00
2023-04-01T04:50:50.068Z,3.40
2023-04-01T04:53:19.713Z,3.70
2023-04-01T04:55:51.320Z,4.33
2023-04-01T04:58:20.342Z,2.95
2023-04-01T05:00:48.345Z,3.62
2023-04-01T05:03:18.054Z,4.78
2023-04-01T05:05:53.262Z,5.05
2023-04-01T05:08:21.187Z,4.07
2023-04-01T05:10:49.124Z,2.75
2023-04-01T05:13:16.763Z,4.05
2023-04-01T05:15:46.573Z,4.43
2023-04-01T05:18:14.800Z,3.72
2023-04-01T05:20:51.432Z,3.57
2023-04-01T05:23:21.997Z,6.20
2023-04-01T05:25:50.924Z,4.10
2023-04-01T05:28:20.258Z,3.60
2023-04-01T05:30:48.334Z,3.05
2023-04-01T05:33:16.267Z,3.03
2023-04-01T05:35:44.232Z,3.53
2023-04-01T05:38:11.857Z,3.22
2023-04-01T05:40:39.434Z,3.97
2023-04-01T05:43:07.432Z,4.00
2023-04-01T05:45:35.815Z,4.00
2023-04-01T05:48:05.991Z,4.90
2023-04-01T05:50:34.513Z,3.42
2023-04-01T05:53:02.728Z,4.82
2023-04-01T05:55:30.406Z,6.78
2023-04-01T05:57:59.021Z,4.83
2023-04-01T06:00:28.273Z,5.18
2023-04-01T06:02:56.462Z,3.45
2023-04-01T06:05:26.379Z,7.40
2023-04-01T06:08:00.261Z,6.62
2023-04-01T06:10:53.163Z,4.50
2023-04-01T06:13:51.544Z,5.43
2023-04-01T06:16:45.817Z,6.78
2023-04-01T06:19:22.785Z,4.28
2023-04-01T06:22:02.176Z,5.07
2023-04-01T06:24:48.753Z,4.07
2023-04-01T06:27:42.468Z,6.97
2023-04-01T06:30:31.048Z,3.67
2023-04-01T06:33:10.431Z,2.25
2023-04-01T06:35:50.592Z,4.03
2023-04-01T06:38:39.293Z,7.73
2023-04-01T06:41:33.787Z,6.60
2023-04-01T06:44:22.860Z,3.20
2023-04-01T06:47:00.136Z,2.25
2023-04-01T06:49:41.678Z,2.45
2023-04-01T06:52:28.727Z,3.33
2023-04-01T06:55:19.556Z,4.18
2023-04-01T06:57:54.061Z,3.72
2023-04-01T07:00:43.792Z,5.60
2023-04-01T07:03:21.289Z,5.37
2023-04-01T07:05:49.853Z,4.63
2023-04-01T07:08:22.849Z,6.12
2023-04-01T07:11:03.740Z,3.53
2023-04-01T07:13:43.012Z,4.97
2023-04-01T07:16:17.042Z,5.25
2023-04-01T07:18:54.908Z,6.13
2023-04-01T07:21:32.034Z,5.30
2023-04-01T07:24:06.077Z,4.60
2023-04-01T07:26:34.078Z,4.25
2023-04-01T07:29:02.216Z,5.45
2023-04-01T07:31:49.675Z,5.20
2023-04-01T07:34:40.818Z,3.00
2023-04-01T07:37:18.058Z,4.10
2023-04-01T07:40:04.445Z,5.05
2023-04-01T07:42:45.410Z,3.15
2023-04-01T07:45:48.560Z,6.17
2023-04-01T07:48:19.190Z,1.58
2023-04-01T07:51:16.320Z,3.53
2023-04-01T07:54:25.613Z,5.55
2023-04-01T07:57:07.789Z,3.90
2023-04-01T08:00:07.636Z,3.30
2023-04-01T08:03:12.802Z,3.90
2023-04-01T08:05:57.035Z,5.20
2023-04-01T08:08:43.972Z,3.30
2023-04-01T08:11:27.461Z,2.80
2023-04-01T08:14:40.541Z,2.97
2023-04-01T08:17:33.862Z,3.90
2023-04-01T08:20:19.982Z,4.32
2023-04-01T08:22:55.527Z,4.55
2023-04-01T08:25:27.653Z,5.65
2023-04-01T08:28:07.845Z,4.00
2023-04-01T08:30:44.390Z,3.60
2023-04-01T08:33:31.593Z,3.15
2023-04-01T08:36:17.583Z,4.10
2023-04-01T08:38:54.688Z,7.50
2023-04-01T08:41:34.474Z,3.13
2023-04-01T08:44:13.690Z,5.22
2023-04-01T08:47:09.276Z,4.70
2023-04-01T08:49:50.594Z,4.90
2023-04-01T08:52:50.266Z,6.03
2023-04-01T08:55:36.769Z,6.33
2023-04-01T08:58:38.882Z,4.00
2023-04-01T09:01:22.881Z,6.32
2023-04-01T09:04:14.382Z,4.07
2023-04-01T09:07:28.766Z,5.37
2023-04-01T09:10:15.912Z,2.27
2023-04-01T09:12:56.217Z,4.30
2023-04-01T09:15:58.358Z,3.35
2023-04-01T09:18:54.613Z,4.00
2023-04-01T09:21:26.225Z,5.35
2023-04-01T09:24:22.172Z,4.30
2023-04-01T09:27:06.228Z,3.55
2023-04-01T09:29:56.806Z,4.37
2023-04-01T09:32:43.343Z,4.03
2023-04-01T09:35:30.782Z,5.72
2023-04-01T09:38:18.807Z,5.97
2023-04-01T09:40:49.640Z,4.40
2023-04-01T09:43:28.945Z,7.25
2023-04-01T09:46:20.219Z,6.43
2023-04-01T09:49:22.238Z,5.10
2023-04-01T09:51:53.432Z,3.67
2023-04-01T09:54:42.407Z,6.30
2023-04-01T09:57:28.816Z,5.30
2023-04-01T10:00:17.409Z,5.25
2023-04-01T10:03:14.842Z,4.87
2023-04-01T10:05:51.847Z,5.27
2023-04-01T10:08:53.175Z,6.22
2023-04-01T10:11:46.659Z,3.35
2023-04-01T10:14:25.637Z,4.85
2023-04-01T10:17:12.135Z,5.55
2023-04-01T10:19:59.107Z,4.80
2023-04-01T10:22:55.578Z,3.03
2023-04-01T10:25:43.842Z,3.83
2023-04-01T10:28:39.384Z,4.75
2023-04-01T10:31:33.914Z,4.32
2023-04-01T10:34:23.315Z,5.23
2023-04-01T10:36:59.148Z,6.05
2023-04-01T10:39:33.154Z,4.25
2023-04-01T10:42:15.779Z,5.10
2023-04-01T10:45:03.440Z,5.28
2023-04-01T10:47:59.321Z,4.33
2023-04-01T10:50:48.136Z,6.30
2023-04-01T10:53:52.162Z,4.65
2023-04-01T10:56:58.402Z,4.00
2023-04-01T10:59:37.628Z,4.47
2023-04-01T11:02:16.381Z,4.00
2023-04-01T11:05:01.595Z,3.05
2023-04-01T11:08:06.127Z,3.42
2023-04-01T11:10:54.162Z,3.78
2023-04-01T11:13:36.932Z,2.10
2023-04-01T11:16:20.925Z,3.73
2023-04-01T11:19:20.117Z,2.70
2023-04-01T11:22:10.642Z,2.08
2023-04-01T11:24:53.780Z,5.30
2023-04-01T11:27:45.757Z,5.15
2023-04-01T11:30:35.830Z,3.70
2023-04-01T11:33:38.746Z,3.78
2023-04-01T11:36:40.595Z,4.62
2023-04-01T11:39:38.918Z,3.53
2023-04-01T11:42:16.821Z,5.80
2023-04-01T11:45:13.206Z,4.90
2023-04-01T11:48:02.761Z,4.22
2023-04-01T11:50:47.488Z,5.70
2023-04-01T11:53:17.082Z,3.20
2023-04-01T11:55:50.374Z,3.58
2023-04-01T11:58:45.957Z,3.73
2023-04-01T12:01:31.113Z,5.80
2023-04-01T12:04:02.302Z,3.60
2023-04-01T12:06:38.981Z,4.25
2023-04-01T12:09:31.735Z,4.72
2023-04-01T12:12:14.394Z,3.70
2023-04-01T12:15:15.004Z,3.97
2023-04-01T12:17:52.274Z,4.05
2023-04-01T12:20:31.553Z,5.45
2023-04-01T12:23:08.178Z,4.97
2023-04-01T12:26:07.524Z,6.03
2023-04-01T12:28:40.863Z,3.75
2023-04-01T12:31:08.611Z,4.78
2023-04-01T12:33:49.575Z,2.35
2023-04-01T12:36:41.453Z,5.50
2023-04-01T12:39:14.942Z,3.43
2023-04-01T12:42:10.832Z,4.12
2023-04-01T12:45:08.821Z,4.00
2023-04-01T12:48:02.388Z,4.10
2023-04-01T12:50:48.268Z,4.37
2023-04-01T12:53:35.729Z,5.60
2023-04-01T12:56:14.011Z,2.80
2023-04-01T12:59:01.026Z,3.58
2023-04-01T13:01:37.731Z,4.12
2023-04-01T13:04:30.690Z,4.93
2023-04-01T13:07:09.943Z,3.70
2023-04-01T13:09:52.071Z,2.53
2023-04-01T13:12:57.170Z,4.12
2023-04-01T13:15:50.469Z,3.53
2023-04-01T13:18:23.868Z,3.67
2023-04-01T13:21:00.958Z,2.90
2023-04-01T13:23:40.381Z,4.75
2023-04-01T13:26:22.167Z,4.05
2023-04-01T13:29:08.387Z,5.87
2023-04-01T13:32:03.558Z,3.03
2023-04-01T13:35:09.696Z,3.93
2023-04-01T13:37:46.901Z,4.87
2023-04-01T13:40:42.721Z,4.05
2023-04-01T13:43:13.841Z,5.32
2023-04-01T13:45:50.722Z,6.00
2023-04-01T13:48:30.991Z,5.43
2023-04-01T13:51:20.197Z,3.62
2023-04-01T13:54:06.665Z,5.57
2023-04-01T13:56:52.966Z,6.18
2023-04-01T13:59:23.805Z,5.30
2023-04-01T14:01:58.884Z,8.90
2023-04-01T14:04:48.345Z,8.60
2023-04-01T14:07:19.569Z,6.00
2023-04-01T14:10:08.774Z,4.35
2023-04-01T14:12:41.143Z,3.45
2023-04-01T14:15:27.776Z,3.43
2023-04-01T14:17:58.653Z,4.93
2023-04-01T14:20:26.675Z,3.12
2023-04-01T14:23:15.011Z,4.82
2023-04-01T14:25:51.805Z,6.37
2023-04-01T14:28:43.496Z,4.83
2023-04-01T14:31:19.756Z,5.53
2023-04-01T14:34:35.044Z,5.90
2023-04-01T14:37:36.376Z,2.85
2023-04-01T14:40:33.854Z,2.53
2023-04-01T14:43:39.526Z,2.90
2023-04-01T14:46:20.791Z,3.83
2023-04-01T14:49:24.207Z,5.78
2023-04-01T14:51:53.646Z,3.50
2023-04-01T14:54:34.434Z,6.05
2023-04-01T14:57:15.810Z,5.57
2023-04-01T14:59:53.254Z,5.72
2023-04-01T15:03:22.550Z,1.87
2023-04-01T15:05:56.488Z,3.05
2023-04-01T15:08:57.237Z,2.58
2023-04-01T15:11:36.655Z,2.50
2023-04-01T15:14:04.225Z,2.50
2023-04-01T15:16:42.983Z,1.48
2023-04-01T15:19:32.661Z,3.08
2023-04-01T15:22:39.843Z,1.90
2023-04-01T15:25:32.376Z,2.37
2023-04-01T15:28:33.845Z,1.95
2023-04-01T15:31:18.803Z,2.12
2023-04-01T15:33:52.187Z,2.72
2023-04-01T15:36:32.158Z,4.18
2023-04-01T15:39:00.553Z,3.00
2023-04-01T15:41:59.516Z,2.05
2023-04-01T15:44:43.424Z,1.83
2023-04-01T15:47:49.519Z,2.83
2023-04-01T15:50:47.724Z,2.90
2023-04-01T15:53:45.310Z,3.33
2023-04-01T15:56:43.713Z,2.78
2023-04-01T15:59:26.145Z,3.53
2023-04-01T16:02:03.821Z,2.55
2023-04-01T16:05:20.875Z,2.15
2023-04-01T16:08:03.693Z,3.33
2023-04-01T16:10:58.648Z,1.95
2023-04-01T16:13:54.858Z,4.43
2023-04-01T16:16:28.963Z,3.85
2023-04-01T16:19:32.228Z,3.05
2023-04-01T16:22:05.099Z,2.90
2023-04-01T16:24:42.305Z,2.53
2023-04-01T16:27:42.593Z,3.40
2023-04-01T16:30:57.287Z,2.37
2023-04-01T16:33:50.785Z,2.58
2023-04-01T16:36:24.344Z,2.53
2023-04-01T16:39:17.342Z,2.10
2023-04-01T16:41:56.293Z,3.75
2023-04-01T16:44:26.117Z,4.07
2023-04-01T16:46:56.869Z,2.40
2023-04-01T16:49:47.477Z,6.60
2023-04-01T16:52:32.066Z,5.65
2023-04-01T16:55:05.217Z,3.92
2023-04-01T16:57:44.535Z,4.53
2023-04-01T17:00:24.729Z,6.18
2023-04-01T17:03:04.022Z,5.57
2023-04-01T17:05:45.504Z,5.78
2023-04-01T17:08:51.426Z,3.92
2023-04-01T17:11:23.848Z,8.55
2023-04-01T17:14:12.886Z,4.53
2023-04-01T17:16:50.516Z,5.77
2023-04-01T17:20:12.176Z,5.45
2023-04-01T17:23:02.788Z,4.25
2023-04-01T17:25:57.826Z,2.60
2023-04-01T17:28:48.686Z,3.03
2023-04-01T17:31:19.665Z,5.23
2023-04-01T17:33:50.415Z,3.05
2023-04-01T17:36:27.327Z,4.43
2023-04-01T17:39:00.881Z,2.65
2023-04-01T17:41:42.407Z,4.30
2023-04-01T17:44:23.260Z,2.63
2023-04-01T17:47:02.752Z,3.90
2023-04-01T17:49:45.936Z,10.23
2023-04-01T17:52:37.982Z,5.75
2023-04-01T17:55:37.883Z,5.40
2023-04-01T17:58:11.975Z,4.07
2023-04-01T18:00:59.709Z,2.58
2023-04-01T18:03:52.836Z,2.53
2023-04-01T18:06:43.811Z,3.12
2023-04-01T18:09:32.594Z,3.40
2023-04-01T18:12:06.329Z,2.10
2023-04-01T18:14:44.727Z,2.28
2023-04-01T18:17:35.165Z,3.22
2023-04-01T18:20:18.339Z,6.37
2023-04-01T18:23:03.614Z,7.75
2023-04-01T18:25:31.440Z,4.97
2023-04-01T18:28:34.047Z,5.95
2023-04-01T18:31:11.181Z,4.30
2023-04-01T18:33:50.477Z,4.28
2023-04-01T18:36:23.441Z,4.87
2023-04-01T18:38:55.066Z,3.90
2023-04-01T18:41:41.866Z,3.62
2023-04-01T18:44:15.732Z,3.20
2023-04-01T18:46:49.721Z,2.25
2023-04-01T18:49:42.339Z,2.80
2023-04-01T18:52:37.349Z,3.27
2023-04-01T18:55:04.747Z,3.45
2023-04-01T18:57:51.708Z,2.22
2023-04-01T19:00:23.681Z,5.55
2023-04-01T19:03:14.080Z,5.10
2023-04-01T19:05:44.182Z,10.10
2023-04-01T19:08:35.196Z,13.07
2023-04-01T19:11:11.909Z,12.45
2023-04-01T19:14:07.658Z,12.02
2023-04-01T19:16:48.278Z,10.98
2023-04-01T19:19:57.448Z,7.30
2023-04-01T19:22:51.876Z,6.65
2023-04-01T19:25:34.835Z,4.72
2023-04-01T19:28:09.630Z,4.10
2023-04-01T19:30:49.789Z,5.07
2023-04-01T19:33:26.958Z,5.00
2023-04-01T19:36:24.353Z,6.78
2023-04-01T19:39:29.702Z,8.77
2023-04-01T19:42:00.402Z,8.77
2023-04-01T19:45:06.955Z,10.45
2023-04-01T19:47:59.538Z,10.53
2023-04-01T19:50:48.194Z,10.13
2023-04-01T19:53:33.120Z,9.15
2023-04-01T19:56:19.612Z,9.45
2023-04-01T19:59:01.291Z,8.07
2023-04-01T20:01:44.801Z,7.43
2023-04-01T20:04:22.180Z,6.85
2023-04-01T20:07:08.328Z,5.72
2023-04-01T20:09:51.370Z,3.05
2023-04-01T20:12:32.301Z,4.28
2023-04-01T20:15:04.812Z,3.63
2023-04-01T20:17:44.631Z,6.57
2023-04-01T20:20:12.463Z,9.48
2023-04-01T20:22:46.080Z,12.52
2023-04-01T20:25:47.894Z,12.80
2023-04-01T20:28:23.105Z,9.63
2023-04-01T20:31:02.397Z,8.07
2023-04-01T20:33:45.274Z,8.70
2023-04-01T20:36:23.721Z,6.80
2023-04-01T20:39:20.594Z,13.98
2023-04-01T20:42:17.750Z,9.83
2023-04-01T20:45:00.799Z,9.40
2023-04-01T20:47:47.483Z,6.53
2023-04-01T20:50:36.299Z,7.35
2023-04-01T20:53:28.825Z,5.97
2023-04-01T20:56:07.844Z,7.80
2023-04-01T20:58:54.710Z,6.40
2023-04-01T21:01:49.027Z,6.53
2023-04-01T21:04:23.769Z,5.30
2023-04-01T21:07:35.329Z,5.22
2023-04-01T21:10:03.197Z,4.93
2023-04-01T21:12:42.732Z,6.07
2023-04-01T21:15:18.061Z,5.72
2023-04-01T21:17:52.695Z,4.62
2023-04-01T21:20:39.506Z,5.53
2023-04-01T21:23:36.446Z,6.93
2023-04-01T21:26:36.599Z,5.90
2023-04-01T21:29:10.425Z,4.97
2023-04-01T21:32:03.185Z,5.43
2023-04-01T21:34:59.918Z,4.65
2023-04-01T21:38:01.579Z,5.33
2023-04-01T21:40:44.444Z,4.85
2023-04-01T21:43:30.389Z,4.37
2023-04-01T21:46:22.653Z,4.20
2023-04-01T21:49:27.914Z,5.18
2023-04-01T21:52:33.149Z,6.13
2023-04-01T21:55:27.844Z,3.78
2023-04-01T21:58:20.476Z,3.67
2023-04-01T22:01:13.125Z,3.62
2023-04-01T22:04:05.821Z,4.70
2023-04-01T22:06:45.076Z,3.73
2023-04-01T22:09:18.901Z,2.95
2023-04-01T22:12:02.491Z,3.28
2023-04-01T22:14:43.039Z,3.08
2023-04-01T22:17:34.306Z,4.18
2023-04-01T22:20:24.380Z,3.70
2023-04-01T22:23:01.169Z,3.20
2023-04-01T22:25:52.819Z,4.22
2023-04-01T22:28:29.003Z,3.08
2023-04-01T22:31:03.340Z,3.92
2023-04-01T22:33:34.041Z,2.60
2023-04-01T22:36:25.260Z,3.10
2023-04-01T22:39:08.335Z,2.35
2023-04-01T22:41:56.006Z,3.62
2023-04-01T22:44:36.512Z,3.03
2023-04-01T22:47:22.755Z,2.00
2023-04-01T22:50:00.252Z,2.62
2023-04-01T22:52:41.907Z,2.97
2023-04-01T22:55:16.016Z,1.52
2023-04-01T22:57:58.299Z,1.85
2023-04-01T23:00:38.013Z,1.87
2023-04-01T23:03:31.468Z,2.17
2023-04-01T23:06:01.622Z,4.05
2023-04-01T23:08:41.763Z,2.25
2023-04-01T23:11:14.034Z,2.85
2023-04-01T23:14:27.783Z,2.60
2023-04-01T23:17:04.338Z,2.42
2023-04-01T23:19:45.410Z,2.53
2023-04-01T23:22:17.698Z,2.33
2023-04-01T23:24:55.884Z,2.10
2023-04-01T23:27:36.073Z,2.07
2023-04-01T23:30:04.698Z,1.90
2023-04-01T23:32:32.621Z,1.73
2023-04-01T23:35:01.281Z,2.08
2023-04-01T23:37:29.192Z,2.53
2023-04-01T23:39:58.690Z,1.70
2023-04-01T23:42:39.656Z,2.40
2023-04-01T23:45:20.928Z,1.45
2023-04-01T23:47:50.519Z,2.08
2023-04-01T23:50:24.186Z,2.50
2023-04-01T23:53:12.389Z,1.83
2023-04-01T23:55:42.769Z,1.90
2023-04-01T23:58:11.947Z,2.60
